Details for Norwegian Air International at LEMG




Go Back


Latest METAR
Local Time

LEMG 181330Z 13010KT 100V170 CAVOK 29/15 Q1015 NOSIG
18/07/2018, 15:59:02

Description
Results
Norwegian Air International Logo
Number of Pilots based at LEMG
0 Pilots Based here
Number of Norwegian Air International Flights Departed from LEMG
4 Flights Departed
Number of Norwegian Air International Flights Arrived at LEMG
3 Flights Arrived
Number of Norwegian Air International Schedules Departing from LEMG
46 Schedules
Number of Norwegian Air International Schedules Arriving at LEMG
49 Schedules
Number of Norwegian Air International Schedules Departing from LEMG availible today
13 Schedules Today
Number of Norwegian Air International Schedules Arriving at LEMG availible today
13 Schedules Today
Average Landing Rate at LEMG
-276 fpm
Norwegian Air International Average Landing Rate at LEMG
-171 fpm
Total Fuel Purchased at LEMG by Norwegian Air International
39,812.69 kgs / 87,771.06 lbs

Pilots Based at LEMG


Pilot ID
Pilot Name
Pilot Rank
No. of Flights
No. of Flying Hours
There are no pilots assigned to this hub!   Will you be the first?
Content